createdAt,value
2017-05-31T00:00:09.483Z,19.92
2017-05-31T00:00:54.844Z,19.91
2017-05-31T00:01:54.867Z,19.83
2017-05-31T00:03:09.509Z,19.77
2017-05-31T00:03:54.920Z,19.87
2017-05-31T00:04:54.944Z,19.77
2017-05-31T00:05:54.970Z,19.71
2017-05-31T00:06:54.693Z,19.77
2017-05-31T00:07:55.024Z,19.78
2017-05-31T00:08:55.049Z,19.74
2017-05-31T00:10:55.099Z,19.73
2017-05-31T00:11:55.133Z,19.84
2017-05-31T00:12:55.152Z,19.81
2017-05-31T00:13:55.183Z,19.76
2017-05-31T00:14:55.207Z,19.86
2017-05-31T00:15:55.232Z,19.77
2017-05-31T00:16:55.257Z,19.84
2017-05-31T00:17:54.979Z,19.76
2017-05-31T00:19:09.924Z,19.78
2017-05-31T00:19:55.336Z,19.76
2017-05-31T00:20:55.060Z,19.8
2017-05-31T00:21:55.388Z,19.74
2017-05-31T00:24:55.162Z,19.8
2017-05-31T00:25:55.190Z,19.77
2017-05-31T00:26:55.215Z,19.59
2017-05-31T00:27:55.242Z,19.59
2017-05-31T00:28:55.570Z,19.55
2017-05-31T00:29:55.597Z,19.55
2017-05-31T00:31:10.237Z,19.62
2017-05-31T00:31:55.344Z,19.68
2017-05-31T00:32:55.673Z,19.65
2017-05-31T00:33:55.698Z,19.8
2017-05-31T00:35:10.390Z,19.76
2017-05-31T00:35:55.143Z,19.63
2017-05-31T00:36:55.171Z,19.68
2017-05-31T00:37:55.194Z,19.58
2017-05-31T00:38:55.828Z,19.68
2017-05-31T00:39:55.854Z,19.74
2017-05-31T00:41:55.907Z,19.55
2017-05-31T00:43:55.960Z,19.56
2017-05-31T00:44:55.991Z,19.74
2017-05-31T00:45:56.064Z,19.77
2017-05-31T00:47:10.650Z,19.68
2017-05-31T00:47:56.068Z,19.74
2017-05-31T00:48:56.088Z,19.68
2017-05-31T00:50:10.428Z,19.76
2017-05-31T00:50:56.141Z,19.73
2017-05-31T00:51:56.168Z,19.77
2017-05-31T00:52:56.256Z,19.71
2017-05-31T00:53:56.219Z,19.68
2017-05-31T00:55:56.269Z,19.74
2017-05-31T00:56:56.296Z,19.56
2017-05-31T01:00:10.991Z,19.58
2017-05-31T01:00:56.398Z,19.74
2017-05-31T01:02:11.041Z,19.74
2017-05-31T01:02:56.451Z,19.74
2017-05-31T01:03:56.476Z,19.78
2017-05-31T01:04:56.505Z,19.76
2017-05-31T01:05:56.528Z,19.73
2017-05-31T01:06:56.801Z,19.71
2017-05-31T01:07:56.578Z,19.81
2017-05-31T01:08:56.604Z,19.73
2017-05-31T01:09:56.634Z,19.59
2017-05-31T01:10:56.655Z,19.76
2017-05-31T01:11:56.683Z,19.73
2017-05-31T01:12:56.707Z,19.73
2017-05-31T01:13:56.733Z,19.74
2017-05-31T01:14:56.758Z,19.68
2017-05-31T01:15:56.786Z,19.65
2017-05-31T01:16:56.810Z,19.73
2017-05-31T01:17:56.836Z,19.63
2017-05-31T01:18:56.867Z,19.58
2017-05-31T01:19:56.888Z,19.63
2017-05-31T01:20:56.916Z,19.74
2017-05-31T01:22:11.557Z,19.69
2017-05-31T01:22:56.967Z,19.69
2017-05-31T01:23:56.688Z,19.71
2017-05-31T01:24:57.017Z,19.73
2017-05-31T01:25:57.045Z,19.58
2017-05-31T01:26:57.069Z,19.48
2017-05-31T01:27:57.096Z,19.44
2017-05-31T01:28:57.124Z,19.29
2017-05-31T01:29:57.150Z,19.36
2017-05-31T01:32:57.225Z,19.26
2017-05-31T01:33:57.252Z,19.31
2017-05-31T01:34:56.974Z,19.18
2017-05-31T01:35:57.001Z,19.14
2017-05-31T01:36:57.329Z,19.14
2017-05-31T01:38:11.971Z,19.19
2017-05-31T01:38:57.380Z,19.11
2017-05-31T01:39:57.102Z,19.04
2017-05-31T01:40:57.433Z,19.04
2017-05-31T01:41:57.459Z,19.13
2017-05-31T01:42:57.484Z,19.08
2017-05-31T01:43:57.509Z,19.06
2017-05-31T01:44:57.596Z,18.99
2017-05-31T01:45:57.561Z,18.99
2017-05-31T01:46:57.597Z,18.94
2017-05-31T01:47:57.615Z,18.94
2017-05-31T01:49:12.257Z,18.87
2017-05-31T01:49:57.666Z,18.91
2017-05-31T01:50:57.691Z,18.81
2017-05-31T01:51:57.415Z,18.82
2017-05-31T01:52:57.742Z,18.84
2017-05-31T01:54:12.384Z,18.8
2017-05-31T01:54:57.491Z,18.75
2017-05-31T01:55:57.517Z,18.73
2017-05-31T01:56:57.845Z,18.73
2017-05-31T01:57:57.871Z,18.63
2017-05-31T01:58:57.896Z,18.69
2017-05-31T02:00:57.948Z,18.75
2017-05-31T02:02:12.598Z,18.72
2017-05-31T02:04:12.643Z,18.67
2017-05-31T02:04:57.749Z,18.73
2017-05-31T02:05:58.083Z,18.67
2017-05-31T02:06:58.103Z,18.81
2017-05-31T02:07:58.132Z,18.69
2017-05-31T02:08:58.151Z,18.78
2017-05-31T02:10:12.794Z,18.88
2017-05-31T02:10:58.202Z,18.91
2017-05-31T02:11:58.228Z,18.99
2017-05-31T02:12:58.253Z,19.07
2017-05-31T02:13:58.279Z,19.08
2017-05-31T02:14:58.306Z,19.07
2017-05-31T02:15:58.333Z,19.02
2017-05-31T02:16:58.358Z,19.06
2017-05-31T02:18:58.411Z,18.99
2017-05-31T02:19:58.434Z,19.14
2017-05-31T02:20:58.460Z,19.14
2017-05-31T02:21:58.486Z,19.08
2017-05-31T02:23:13.129Z,19.18
2017-05-31T02:23:58.536Z,19.14
2017-05-31T02:25:13.183Z,19.11
2017-05-31T02:25:58.591Z,19.18
2017-05-31T02:27:58.646Z,19.21
2017-05-31T02:28:58.667Z,19.19
2017-05-31T02:29:58.394Z,19.18
2017-05-31T02:30:58.721Z,19.13
2017-05-31T02:31:58.744Z,19.14
2017-05-31T02:32:58.777Z,19.07
2017-05-31T02:33:58.793Z,19.16
2017-05-31T02:34:58.824Z,19.13
2017-05-31T02:35:58.850Z,19.21
2017-05-31T02:36:58.875Z,19.22
2017-05-31T02:37:58.896Z,19.14
2017-05-31T02:38:58.927Z,19.1
2017-05-31T02:39:58.948Z,19.18
2017-05-31T02:40:58.973Z,19.14
2017-05-31T02:41:58.997Z,19.13
2017-05-31T02:42:58.721Z,19.22
2017-05-31T02:43:59.058Z,19.19
2017-05-31T02:44:58.775Z,18.99
2017-05-31T02:45:59.101Z,19.02
2017-05-31T02:46:59.128Z,18.98
2017-05-31T02:47:58.850Z,18.9
2017-05-31T02:48:59.184Z,18.92
2017-05-31T02:49:58.901Z,18.92
2017-05-31T02:50:59.234Z,18.87
2017-05-31T02:51:59.257Z,18.84
2017-05-31T02:52:59.282Z,18.84
2017-05-31T02:54:13.924Z,18.9
2017-05-31T02:54:59.332Z,18.85
2017-05-31T02:55:59.357Z,18.84
2017-05-31T02:57:13.699Z,18.75
2017-05-31T02:57:59.409Z,18.82
2017-05-31T02:58:59.433Z,18.78
2017-05-31T02:59:59.460Z,18.85
2017-05-31T03:00:59.487Z,18.84
2017-05-31T03:01:59.207Z,18.78
2017-05-31T03:02:59.537Z,18.76
2017-05-31T03:03:59.561Z,18.85
2017-05-31T03:04:59.587Z,18.76
2017-05-31T03:06:14.235Z,18.76
2017-05-31T03:07:59.665Z,18.8
2017-05-31T03:08:59.084Z,18.72
2017-05-31T03:09:59.413Z,18.73
2017-05-31T03:11:14.360Z,18.69
2017-05-31T03:11:59.772Z,18.55
2017-05-31T03:13:14.409Z,18.58
2017-05-31T03:13:59.820Z,18.6
2017-05-31T03:14:59.542Z,18.67
2017-05-31T03:15:59.568Z,18.52
2017-05-31T03:16:59.592Z,18.58
2017-05-31T03:17:59.614Z,18.66
2017-05-31T03:18:59.641Z,18.63
2017-05-31T03:19:59.970Z,18.55
2017-05-31T03:20:59.996Z,18.55
2017-05-31T03:22:00.021Z,18.51
2017-05-31T03:24:00.072Z,18.52
2017-05-31T03:25:14.717Z,18.47
2017-05-31T03:25:59.821Z,18.48
2017-05-31T03:27:00.152Z,18.47
2017-05-31T03:28:00.174Z,18.39
2017-05-31T03:29:14.817Z,18.42
2017-05-31T03:30:00.272Z,18.45
2017-05-31T03:31:00.259Z,18.44
2017-05-31T03:32:00.278Z,18.48
2017-05-31T03:33:00.304Z,18.51
2017-05-31T03:34:00.328Z,18.48
2017-05-31T03:35:00.355Z,18.51
2017-05-31T03:37:00.104Z,18.62
2017-05-31T03:38:00.430Z,18.67
2017-05-31T03:39:00.153Z,18.69
2017-05-31T03:40:00.180Z,18.75
2017-05-31T03:41:00.508Z,18.76
2017-05-31T03:42:00.534Z,18.81
2017-05-31T03:43:00.558Z,18.78
2017-05-31T03:44:00.581Z,18.82
2017-05-31T03:45:15.275Z,18.81
2017-05-31T03:46:00.638Z,18.75
2017-05-31T03:47:00.663Z,18.8
2017-05-31T03:48:00.686Z,18.75
2017-05-31T03:49:00.709Z,18.7
2017-05-31T03:50:00.735Z,18.78
2017-05-31T03:51:00.154Z,18.65
2017-05-31T03:52:00.787Z,18.73
2017-05-31T03:54:00.838Z,18.73
2017-05-31T03:55:00.861Z,18.76
2017-05-31T03:56:00.888Z,18.66
2017-05-31T03:57:00.915Z,18.76
2017-05-31T03:58:00.961Z,18.65
2017-05-31T03:59:00.967Z,18.75
2017-05-31T04:00:15.306Z,18.87
2017-05-31T04:01:01.019Z,18.85
2017-05-31T04:02:01.046Z,18.81
2017-05-31T04:03:01.069Z,18.82
2017-05-31T04:04:01.097Z,18.76
2017-05-31T04:05:01.119Z,18.78
2017-05-31T04:06:00.841Z,18.87
2017-05-31T04:07:01.170Z,18.72
2017-05-31T04:08:01.197Z,18.75
2017-05-31T04:09:00.917Z,18.85
2017-05-31T04:10:00.947Z,18.76
2017-05-31T04:11:00.967Z,18.73
2017-05-31T04:12:01.303Z,18.82
2017-05-31T04:13:01.019Z,18.76
2017-05-31T04:14:01.046Z,18.88
2017-05-31T04:15:01.374Z,18.84
2017-05-31T04:16:01.099Z,18.9
2017-05-31T04:17:01.123Z,18.98
2017-05-31T04:18:01.449Z,19.04
2017-05-31T04:19:01.175Z,18.98
2017-05-31T04:20:01.504Z,18.98
2017-05-31T04:21:01.528Z,18.92
2017-05-31T04:22:01.250Z,18.85
2017-05-31T04:23:01.579Z,18.82
2017-05-31T04:25:01.629Z,18.88
2017-05-31T04:26:01.653Z,18.78
2017-05-31T04:27:16.297Z,18.85
2017-05-31T04:28:01.702Z,18.84
2017-05-31T04:29:16.347Z,18.9
2017-05-31T04:30:01.754Z,18.88
2017-05-31T04:31:01.778Z,18.88
2017-05-31T04:32:16.119Z,18.76
2017-05-31T04:33:01.837Z,18.81
2017-05-31T04:34:01.857Z,18.8
2017-05-31T04:35:01.881Z,18.78
2017-05-31T04:36:01.907Z,18.76
2017-05-31T04:37:01.935Z,18.73
2017-05-31T04:38:01.960Z,18.82
2017-05-31T04:39:02.043Z,18.81
2017-05-31T04:40:01.709Z,18.72
2017-05-31T04:41:02.044Z,18.73
2017-05-31T04:42:02.062Z,18.72
2017-05-31T04:43:02.086Z,18.73
2017-05-31T04:44:16.732Z,18.85
2017-05-31T04:45:02.198Z,18.75
2017-05-31T04:46:02.165Z,18.85
2017-05-31T04:47:02.192Z,18.81
2017-05-31T04:48:16.830Z,18.82
2017-05-31T04:49:02.241Z,18.88
2017-05-31T04:50:02.268Z,18.88
2017-05-31T04:51:02.292Z,18.94
2017-05-31T04:52:02.330Z,18.91
2017-05-31T04:53:02.343Z,18.82
2017-05-31T04:54:02.367Z,18.92
2017-05-31T04:56:02.422Z,19.02
2017-05-31T04:57:02.445Z,19.13
2017-05-31T04:58:02.469Z,19.04
2017-05-31T04:59:02.194Z,19.14
2017-05-31T05:00:02.522Z,19.14
2017-05-31T05:01:02.546Z,19.06
2017-05-31T05:02:02.571Z,19.1
2017-05-31T05:03:02.596Z,19.1
2017-05-31T05:04:17.241Z,19.04
2017-05-31T05:05:02.646Z,19.02
2017-05-31T05:06:02.673Z,19.04
2017-05-31T05:07:02.698Z,18.94
2017-05-31T05:08:02.723Z,18.84
2017-05-31T05:09:02.749Z,18.9
2017-05-31T05:10:17.094Z,18.9
2017-05-31T05:11:02.800Z,18.92
2017-05-31T05:12:02.824Z,19.02
2017-05-31T05:13:02.849Z,19
2017-05-31T05:14:02.877Z,19.02
2017-05-31T05:15:02.598Z,19.14
2017-05-31T05:16:17.545Z,19.06
2017-05-31T05:17:02.651Z,18.99
2017-05-31T05:18:02.978Z,18.99
2017-05-31T05:19:03.005Z,18.99
2017-05-31T05:20:17.646Z,18.87
2017-05-31T05:21:03.056Z,18.88
2017-05-31T05:22:02.776Z,18.92
2017-05-31T05:23:02.803Z,18.87
2017-05-31T05:24:02.828Z,19.06
2017-05-31T05:25:03.166Z,19.16
2017-05-31T05:26:03.182Z,19.14
2017-05-31T05:27:03.208Z,19.14
2017-05-31T05:28:03.232Z,19.23
2017-05-31T05:31:17.981Z,20.08
2017-05-31T05:32:03.339Z,20.2
2017-05-31T05:33:03.071Z,20.39
2017-05-31T05:34:03.396Z,20.47
2017-05-31T05:35:18.032Z,20.61
2017-05-31T05:36:03.450Z,20.73
2017-05-31T05:37:03.164Z,21.14
2017-05-31T05:38:03.190Z,21.27
2017-05-31T05:39:03.522Z,20.92
2017-05-31T05:40:03.550Z,20.92
2017-05-31T05:41:03.576Z,20.7
2017-05-31T05:42:02.995Z,20.41
2017-05-31T05:43:03.632Z,20.47
2017-05-31T05:44:03.348Z,20.62
2017-05-31T05:45:03.677Z,20.94
2017-05-31T05:46:03.705Z,21.44
2017-05-31T05:47:03.734Z,21.54
2017-05-31T05:48:18.376Z,21.62
2017-05-31T05:49:03.481Z,21.5
2017-05-31T05:50:03.815Z,21.71
2017-05-31T05:51:03.838Z,22.3
2017-05-31T05:52:03.566Z,22.28
2017-05-31T05:53:03.895Z,22.02
2017-05-31T05:54:03.687Z,21.58
2017-05-31T05:57:04.009Z,22.12
2017-05-31T05:58:04.030Z,22.03
2017-05-31T05:59:04.057Z,22.86
2017-05-31T06:00:04.085Z,23.84
2017-05-31T06:01:04.115Z,24.45
2017-05-31T06:02:03.839Z,24.42
2017-05-31T06:03:04.170Z,25.09
2017-05-31T06:04:04.202Z,25.6
2017-05-31T06:05:03.930Z,26.3
2017-05-31T06:06:04.261Z,26.05
2017-05-31T06:07:18.908Z,26.58
2017-05-31T06:08:04.322Z,26.73
2017-05-31T06:09:04.353Z,27.06
2017-05-31T06:10:04.385Z,27.39
2017-05-31T06:11:03.809Z,27.57
2017-05-31T06:12:04.447Z,27.63
2017-05-31T06:13:04.175Z,27.94
2017-05-31T06:14:04.512Z,28.07
2017-05-31T06:15:04.551Z,28.67
2017-05-31T06:16:04.578Z,28.73
2017-05-31T06:17:04.308Z,28.14
2017-05-31T06:18:04.341Z,28.19
2017-05-31T06:19:19.296Z,27.43
2017-05-31T06:20:04.410Z,27.7
2017-05-31T06:21:04.441Z,28.3
2017-05-31T06:22:04.782Z,28.33
2017-05-31T06:23:19.429Z,28.7
2017-05-31T06:24:04.543Z,27.96
2017-05-31T06:25:04.881Z,26.55
2017-05-31T06:26:04.917Z,26.02
2017-05-31T06:27:04.949Z,25.32
2017-05-31T06:28:04.978Z,24.1
2017-05-31T06:29:04.710Z,23.58
2017-05-31T06:30:05.047Z,23.88
2017-05-31T06:31:05.083Z,23.79
2017-05-31T06:32:05.110Z,23.63
2017-05-31T06:33:05.143Z,24.13
2017-05-31T06:34:05.176Z,24.18
2017-05-31T06:35:04.906Z,23.7
2017-05-31T06:36:04.936Z,24.22
2017-05-31T06:37:05.270Z,24
2017-05-31T06:38:05.301Z,23.61
2017-05-31T06:39:19.953Z,23.28
2017-05-31T06:40:05.368Z,23.66
2017-05-31T06:42:05.124Z,23.68
2017-05-31T06:43:05.458Z,23.69
2017-05-31T06:44:05.490Z,24.27
2017-05-31T06:46:05.558Z,25
2017-05-31T06:48:05.616Z,24.43
2017-05-31T06:49:05.649Z,24.39
2017-05-31T06:50:05.682Z,24.77
2017-05-31T06:51:20.327Z,25.76
2017-05-31T06:52:20.357Z,26.43
2017-05-31T06:53:05.467Z,26.77
2017-05-31T06:54:05.497Z,27.44
2017-05-31T06:55:20.454Z,27.85
2017-05-31T06:56:05.866Z,28.14
2017-05-31T06:57:05.947Z,28.56
2017-05-31T06:58:05.630Z,28.74
2017-05-31T06:59:05.961Z,29.23
2017-05-31T07:00:05.996Z,28.81
2017-05-31T07:01:06.028Z,28.96
2017-05-31T07:02:05.757Z,28.7
2017-05-31T07:03:06.096Z,29.11
2017-05-31T07:06:06.203Z,29.04
2017-05-31T07:07:20.902Z,29.19
2017-05-31T07:08:20.886Z,29
2017-05-31T07:09:06.300Z,28.55
2017-05-31T07:10:20.956Z,28.25
2017-05-31T07:11:06.371Z,28.12
2017-05-31T07:12:06.405Z,28.4
2017-05-31T07:13:06.443Z,28.73
2017-05-31T07:14:06.477Z,28.64
2017-05-31T07:15:06.511Z,27.97
2017-05-31T07:16:06.545Z,28.29
2017-05-31T07:17:06.581Z,28.66
2017-05-31T07:18:06.310Z,28.9
2017-05-31T07:19:06.646Z,27.88
2017-05-31T07:21:06.111Z,27.72
2017-05-31T07:22:06.803Z,27.75
2017-05-31T07:23:21.406Z,27.1
2017-05-31T07:24:06.822Z,26.39
2017-05-31T07:25:06.856Z,25.73
2017-05-31T07:26:06.891Z,25.2
2017-05-31T07:27:06.922Z,24.73
2017-05-31T07:28:06.974Z,24.52
2017-05-31T07:29:06.990Z,24
2017-05-31T07:30:07.025Z,23.63
2017-05-31T07:31:07.057Z,23.48
2017-05-31T07:32:06.784Z,23.54
2017-05-31T07:33:07.119Z,23.57
2017-05-31T07:34:07.151Z,23.61
2017-05-31T07:35:06.929Z,23.35
2017-05-31T07:36:07.216Z,23.16
2017-05-31T07:37:07.248Z,22.8
2017-05-31T07:38:21.897Z,22.68
2017-05-31T07:39:21.928Z,22.85
2017-05-31T07:40:07.349Z,22.85
2017-05-31T07:41:07.372Z,22.83
2017-05-31T07:42:22.021Z,23.17
2017-05-31T07:43:07.432Z,23.54
2017-05-31T07:44:07.460Z,23.5
2017-05-31T07:45:07.838Z,23.65
2017-05-31T07:46:07.523Z,23.9
2017-05-31T07:47:07.570Z,24.73
2017-05-31T07:48:07.584Z,25.47
2017-05-31T07:50:22.268Z,26.85
2017-05-31T07:51:07.679Z,27.28
2017-05-31T07:52:07.708Z,27.97
2017-05-31T07:53:07.742Z,28.4
2017-05-31T07:54:07.773Z,28.71
2017-05-31T07:55:07.804Z,28.76
2017-05-31T07:56:07.834Z,28.02
2017-05-31T07:57:07.262Z,27.34
2017-05-31T07:58:22.523Z,26.37
2017-05-31T07:59:07.934Z,26.67
2017-05-31T08:00:07.358Z,27.31
2017-05-31T08:01:07.999Z,27.84
2017-05-31T08:02:08.032Z,27.6
2017-05-31T08:03:08.062Z,27.72
2017-05-31T08:04:08.097Z,28.14
2017-05-31T08:05:07.827Z,27.88
2017-05-31T08:06:07.859Z,27.43
2017-05-31T08:08:07.927Z,28.61
2017-05-31T08:09:08.266Z,28.68
2017-05-31T08:10:22.919Z,27.66
2017-05-31T08:11:08.335Z,27.66
2017-05-31T08:12:07.759Z,27.36
2017-05-31T08:13:08.401Z,27.51
2017-05-31T08:14:23.052Z,28.31
2017-05-31T08:15:08.165Z,28.12
2017-05-31T08:16:08.200Z,28.22
2017-05-31T08:17:08.537Z,28.43
2017-05-31T08:18:08.568Z,28.74
2017-05-31T08:19:08.603Z,28.41
2017-05-31T08:20:08.638Z,27.66
2017-05-31T08:21:08.670Z,26.75
2017-05-31T08:22:08.709Z,26.3
2017-05-31T08:23:08.739Z,26.69
2017-05-31T08:24:08.771Z,27.09
2017-05-31T08:25:23.427Z,27.55
2017-05-31T08:26:23.460Z,28.02
2017-05-31T08:27:23.253Z,27.97
2017-05-31T08:28:08.908Z,27.78
2017-05-31T08:29:08.942Z,27.22
2017-05-31T08:30:23.598Z,26.92
2017-05-31T08:31:09.007Z,26.84
2017-05-31T08:32:08.738Z,26.51
2017-05-31T08:33:09.075Z,26.21
2017-05-31T08:35:08.837Z,25.6
2017-05-31T08:36:09.173Z,25.38
2017-05-31T08:37:09.208Z,25.7
2017-05-31T08:38:09.238Z,25.94
2017-05-31T08:39:09.274Z,25.57
2017-05-31T08:40:09.305Z,25.82
2017-05-31T08:41:24.007Z,26.52
2017-05-31T08:42:23.989Z,26.8
2017-05-31T08:43:09.406Z,26.87
2017-05-31T08:44:09.496Z,26.77
2017-05-31T08:45:24.088Z,26.45
2017-05-31T08:46:09.502Z,27
2017-05-31T08:47:09.536Z,27.21
2017-05-31T08:48:09.262Z,27.18
2017-05-31T08:50:09.633Z,27.57
2017-05-31T08:52:09.997Z,28.49
2017-05-31T08:54:09.458Z,27.57
2017-05-31T08:55:09.853Z,27.96
2017-05-31T08:56:09.833Z,28.07
2017-05-31T08:57:09.559Z,27.87
2017-05-31T08:58:09.891Z,27.25
2017-05-31T08:59:09.623Z,27.31
2017-05-31T09:00:09.658Z,26.77
2017-05-31T09:01:10.011Z,26.72
2017-05-31T09:02:09.721Z,27.09
2017-05-31T09:03:10.105Z,26.3
2017-05-31T09:04:10.087Z,25.91
2017-05-31T09:05:09.817Z,26.05
2017-05-31T09:06:09.545Z,26.18
2017-05-31T09:07:09.881Z,26.44
2017-05-31T09:08:09.914Z,26.44
2017-05-31T09:09:10.248Z,26.73
2017-05-31T09:10:09.977Z,27.1
2017-05-31T09:11:10.011Z,26.57
2017-05-31T09:12:24.662Z,26.33
2017-05-31T09:13:25.000Z,26.57
2017-05-31T09:14:25.028Z,26.77
2017-05-31T09:15:10.443Z,27.02
2017-05-31T09:16:10.472Z,26.92
2017-05-31T09:17:25.128Z,27.34
2017-05-31T09:18:10.537Z,27.4
2017-05-31T09:19:10.269Z,26.95
2017-05-31T09:20:10.604Z,26.45
2017-05-31T09:21:10.329Z,26.06
2017-05-31T09:22:10.665Z,25.77
2017-05-31T09:24:10.729Z,26.58
2017-05-31T09:25:10.759Z,27.13
2017-05-31T09:27:10.525Z,28.55
2017-05-31T09:28:10.553Z,29.04
2017-05-31T09:29:10.886Z,29.27
2017-05-31T09:30:10.617Z,29.05
2017-05-31T09:31:25.568Z,28.85
2017-05-31T09:32:10.678Z,29.14
2017-05-31T09:33:25.634Z,29.39
2017-05-31T09:34:11.048Z,29.36
2017-05-31T09:35:11.080Z,29.34
2017-05-31T09:36:11.110Z,29.57
2017-05-31T09:37:10.840Z,28.52
2017-05-31T09:38:11.177Z,27.74
2017-05-31T09:39:11.210Z,27.65
2017-05-31T09:40:11.246Z,28.34
2017-05-31T09:41:10.975Z,29.11
2017-05-31T09:42:11.307Z,29.05
2017-05-31T09:43:11.343Z,29.02
2017-05-31T09:44:11.373Z,29.45
2017-05-31T09:45:26.023Z,29.76
2017-05-31T09:46:11.492Z,29.28
2017-05-31T09:47:11.525Z,28.15
2017-05-31T09:48:11.501Z,27.43
2017-05-31T09:49:25.849Z,27.1
2017-05-31T09:50:11.567Z,27.32
2017-05-31T09:51:11.599Z,27.39
2017-05-31T09:52:11.631Z,27.65
2017-05-31T09:53:11.662Z,28.14
2017-05-31T09:54:11.696Z,27.96
2017-05-31T09:55:11.729Z,27.66
2017-05-31T09:56:11.456Z,27.41
2017-05-31T09:57:11.790Z,27.32
2017-05-31T09:58:11.821Z,27.25
2017-05-31T09:59:11.855Z,27.72
2017-05-31T10:00:11.888Z,27.67
2017-05-31T10:01:11.619Z,27.07
2017-05-31T10:02:11.953Z,27.07
2017-05-31T10:03:11.983Z,27.49
2017-05-31T10:04:12.019Z,27.21
2017-05-31T10:05:26.662Z,26.89
2017-05-31T10:06:11.775Z,26.63
2017-05-31T10:07:12.110Z,26.76
2017-05-31T10:08:12.141Z,26.67
2017-05-31T10:09:11.877Z,26.33
2017-05-31T10:10:12.202Z,25.5
2017-05-31T10:11:11.979Z,24.73
2017-05-31T10:13:11.991Z,24.1
2017-05-31T10:14:11.719Z,23.84
2017-05-31T10:15:12.365Z,23.7
2017-05-31T10:16:12.386Z,24.3
2017-05-31T10:17:12.419Z,25.23
2017-05-31T10:18:27.075Z,25.97
2017-05-31T10:19:12.483Z,25.95
2017-05-31T10:20:27.129Z,26.32
2017-05-31T10:21:12.545Z,26.6
2017-05-31T10:22:12.575Z,26.73
2017-05-31T10:23:12.302Z,26.55
2017-05-31T10:24:12.640Z,25.75
2017-05-31T10:25:12.360Z,26.07
2017-05-31T10:27:12.730Z,27.19
2017-05-31T10:28:12.758Z,27.12
2017-05-31T10:29:12.784Z,27.22
2017-05-31T10:30:12.821Z,26.55
2017-05-31T10:31:12.848Z,26.97
2017-05-31T10:32:12.877Z,26.75
2017-05-31T10:33:12.907Z,26.66
2017-05-31T10:34:12.636Z,26.6
2017-05-31T10:35:12.971Z,26.29
2017-05-31T10:36:12.697Z,26.33
2017-05-31T10:37:13.032Z,26.06
2017-05-31T10:38:13.063Z,25.95
2017-05-31T10:39:12.793Z,26.05
2017-05-31T10:41:12.852Z,25.61
2017-05-31T10:42:13.185Z,25.58
2017-05-31T10:43:13.214Z,25.6
2017-05-31T10:44:12.645Z,25.79
2017-05-31T10:45:12.974Z,25.77
2017-05-31T10:46:13.001Z,26.18
2017-05-31T10:47:27.653Z,26.72
2017-05-31T10:48:13.370Z,26.77
2017-05-31T10:49:28.016Z,26.87
2017-05-31T10:50:13.427Z,26.91
2017-05-31T10:51:13.155Z,26.67
2017-05-31T10:52:28.107Z,26.81
2017-05-31T10:53:12.911Z,26.63
2017-05-31T10:54:13.550Z,26.84
2017-05-31T10:55:13.277Z,26.66
2017-05-31T10:56:13.613Z,26.39
2017-05-31T10:57:13.647Z,26.29
2017-05-31T10:58:13.676Z,26.3
2017-05-31T10:59:13.402Z,26.29
2017-05-31T11:00:13.736Z,26.6
2017-05-31T11:01:13.766Z,26.33
2017-05-31T11:02:13.493Z,26.3
2017-05-31T11:04:13.854Z,26.55
2017-05-31T11:05:13.886Z,26.5
2017-05-31T11:06:13.611Z,26.69
2017-05-31T11:07:13.945Z,26.94
2017-05-31T11:09:14.005Z,26.8
2017-05-31T11:10:14.037Z,26.85
2017-05-31T11:11:13.774Z,27.07
2017-05-31T11:12:14.099Z,27.19
2017-05-31T11:13:14.128Z,26.82
2017-05-31T11:14:14.159Z,26.77
2017-05-31T11:16:14.222Z,27.14
2017-05-31T11:19:14.309Z,26.65
2017-05-31T11:20:14.342Z,26.4
2017-05-31T11:21:14.070Z,26.45
2017-05-31T11:22:14.099Z,26.69
2017-05-31T11:23:14.492Z,26.89
2017-05-31T11:24:29.079Z,26.82
2017-05-31T11:25:14.498Z,26.84
2017-05-31T11:26:14.522Z,26.81
2017-05-31T11:27:14.553Z,26.77
2017-05-31T11:28:14.581Z,26.43
2017-05-31T11:29:14.612Z,26.45
2017-05-31T11:30:14.645Z,26.35
2017-05-31T11:31:14.685Z,26.44
2017-05-31T11:32:29.022Z,26.44
2017-05-31T11:33:14.435Z,26.4
2017-05-31T11:34:14.462Z,26.1
2017-05-31T11:35:29.414Z,25.94
2017-05-31T11:36:29.443Z,26.05
2017-05-31T11:37:14.861Z,26.06
2017-05-31T11:38:14.885Z,26.17
2017-05-31T11:39:14.913Z,26.3
2017-05-31T11:40:29.562Z,26.07
2017-05-31T11:41:14.983Z,26.01
2017-05-31T11:42:15.114Z,26.15
2017-05-31T11:43:15.037Z,26.32
2017-05-31T11:44:15.064Z,26.54
2017-05-31T11:45:15.095Z,26.63
2017-05-31T11:46:15.124Z,26.8
2017-05-31T11:47:15.153Z,27.04
2017-05-31T11:48:15.191Z,26.88
2017-05-31T11:49:14.916Z,26.75
2017-05-31T11:50:15.244Z,26.75
2017-05-31T11:51:15.275Z,26.7
2017-05-31T11:52:29.921Z,26.73
2017-05-31T11:53:15.032Z,26.84
2017-05-31T11:54:15.061Z,27.02
2017-05-31T11:55:30.014Z,26.88
2017-05-31T11:56:15.119Z,26.8
2017-05-31T11:57:15.148Z,26.7
2017-05-31T11:58:15.181Z,26.5
2017-05-31T11:59:15.511Z,26.2
2017-05-31T12:00:15.238Z,26.43
2017-05-31T12:01:15.573Z,26.47
2017-05-31T12:04:15.659Z,26.63
2017-05-31T12:05:30.007Z,26.63
2017-05-31T12:06:15.417Z,26.67
2017-05-31T12:07:15.565Z,26.58
2017-05-31T12:08:15.486Z,26.48
2017-05-31T12:09:15.811Z,26.4
2017-05-31T12:10:15.540Z,26.48
2017-05-31T12:11:15.871Z,26.52
2017-05-31T12:12:15.645Z,26.4
2017-05-31T12:13:15.933Z,26.44
2017-05-31T12:14:15.959Z,26.2
2017-05-31T12:15:15.691Z,25.87
2017-05-31T12:16:16.018Z,25.55
2017-05-31T12:17:16.045Z,25.82
2017-05-31T12:18:16.076Z,26.07
2017-05-31T12:21:16.167Z,26.36
2017-05-31T12:22:30.510Z,26.21
2017-05-31T12:23:16.224Z,26.07
2017-05-31T12:24:30.871Z,26.02
2017-05-31T12:25:15.677Z,25.7
2017-05-31T12:26:16.311Z,25.94
2017-05-31T12:27:30.961Z,25.75
2017-05-31T12:28:16.373Z,26.12
2017-05-31T12:29:16.403Z,26.29
2017-05-31T12:30:16.130Z,26.32
2017-05-31T12:32:16.495Z,26.3
2017-05-31T12:33:16.519Z,26.18
2017-05-31T12:34:16.550Z,26.17
2017-05-31T12:35:16.275Z,26.18
2017-05-31T12:36:16.355Z,26.35
2017-05-31T12:39:31.315Z,26.02
2017-05-31T12:40:16.729Z,26.06
2017-05-31T12:41:16.755Z,26.13
2017-05-31T12:42:16.784Z,26.09
2017-05-31T12:43:31.131Z,26.44
2017-05-31T12:44:16.843Z,26.5
2017-05-31T12:45:16.874Z,26.73
2017-05-31T12:46:16.905Z,26.62
2017-05-31T12:47:16.932Z,26.36
2017-05-31T12:48:16.659Z,26.32
2017-05-31T12:49:16.991Z,26.3
2017-05-31T12:50:17.020Z,26.29
2017-05-31T12:51:16.749Z,26.39
2017-05-31T12:52:16.777Z,26.43
2017-05-31T12:53:17.111Z,26.51
2017-05-31T12:54:16.837Z,26.45
2017-05-31T12:55:16.866Z,26.47
2017-05-31T12:56:31.816Z,26.51
2017-05-31T12:57:17.227Z,26.6
2017-05-31T12:58:17.257Z,26.76
2017-05-31T12:59:31.905Z,26.73
2017-05-31T13:00:17.370Z,26.55
2017-05-31T13:01:17.347Z,26.45
2017-05-31T13:02:17.378Z,26.21
2017-05-31T13:03:17.405Z,26.2
2017-05-31T13:04:17.434Z,26.33
2017-05-31T13:05:17.463Z,26.3
2017-05-31T13:07:17.530Z,26.32
2017-05-31T13:08:17.246Z,26.25
2017-05-31T13:09:17.276Z,26.25
2017-05-31T13:10:31.926Z,26.35
2017-05-31T13:11:17.341Z,26.05
2017-05-31T13:12:32.288Z,26.18
2017-05-31T13:13:17.699Z,26.35
2017-05-31T13:14:17.728Z,26.2
2017-05-31T13:16:17.790Z,25.88
2017-05-31T13:17:17.825Z,26.02
2017-05-31T13:18:17.846Z,26.07
2017-05-31T13:19:17.875Z,26.02
2017-05-31T13:20:17.904Z,25.99
2017-05-31T13:21:17.981Z,26.06
2017-05-31T13:22:17.965Z,26.05
2017-05-31T13:23:17.995Z,26.13
2017-05-31T13:25:18.058Z,25.97
2017-05-31T13:26:17.477Z,26.23
2017-05-31T13:27:32.729Z,26.07
2017-05-31T13:28:18.202Z,26.02
2017-05-31T13:29:18.169Z,25.92
2017-05-31T13:30:32.817Z,25.8
2017-05-31T13:31:18.233Z,25.69
2017-05-31T13:32:18.256Z,25.35
2017-05-31T13:33:18.286Z,25.45
2017-05-31T13:34:18.316Z,25.47
2017-05-31T13:35:18.345Z,25.39
2017-05-31T13:36:18.070Z,25.3
2017-05-31T13:40:18.492Z,24.78
2017-05-31T13:41:18.551Z,24.81
2017-05-31T13:42:33.167Z,24.84
2017-05-31T13:43:33.195Z,25.02
2017-05-31T13:44:18.659Z,25.17
2017-05-31T13:45:18.643Z,25.36
2017-05-31T13:46:18.664Z,25.67
2017-05-31T13:47:18.693Z,25.61
2017-05-31T13:48:18.721Z,25.75
2017-05-31T13:49:18.751Z,25.91
2017-05-31T13:50:18.779Z,25.82
2017-05-31T13:51:18.503Z,25.65
2017-05-31T13:52:18.835Z,25.46
2017-05-31T13:53:18.865Z,25.32
2017-05-31T13:54:19.143Z,25.3